Time;durP1;ratioP1;P1;durP2;ratioP2;P2;SDS_P1;SDS_P2;PMS_P1;PMS_P2;Temp;Humidity;BMP_temperature;BMP_pressure;BME280_temperature;BME280_humidity;BME280_pressure;Samples;Min_cycle;Max_cycle;Signal;HPM_P1;HPM_P2
2021/12/14 00:01:35;;;;;;;19.05;11.30;;;8.10;99.90;;;;;;5094310;28;20407;-77
2021/12/14 00:04:07;;;;;;;19.77;11.77;;;8.00;99.90;;;;;;5094724;28;20079;-78
2021/12/14 00:06:34;;;;;;;;;;;8.00;99.90;;;;;;5076878;28;20040;-77
2021/12/14 00:09:01;;;;;;;18.13;11.45;;;8.10;99.90;;;;;;5094488;28;19924;-79
2021/12/14 00:14:27;;;;;;;19.38;10.95;;;8.50;99.90;;;;;;5094542;28;20060;-79
2021/12/14 00:16:57;;;;;;;19.67;11.13;;;8.00;99.90;;;;;;5075937;28;20055;-78
2021/12/14 00:19:25;;;;;;;16.95;10.10;;;8.00;99.90;;;;;;5094199;28;20055;-79
2021/12/14 00:21:54;;;;;;;16.52;10.60;;;8.40;99.90;;;;;;5093944;28;20051;-78
2021/12/14 00:24:23;;;;;;;19.65;11.88;;;8.00;99.90;;;;;;5074941;28;20051;-77
2021/12/14 00:26:54;;;;;;;17.35;10.70;;;8.00;99.90;;;;;;5094143;28;20490;-79
2021/12/14 00:29:36;;;;;;;18.92;11.13;;;8.00;99.90;;;;;;5094208;28;20040;-78
2021/12/14 00:32:07;;;;;;;17.70;10.10;;;8.00;99.90;;;;;;5075814;28;20403;-77
2021/12/14 00:34:43;;;;;;;18.25;10.52;;;8.00;99.90;;;;;;5093930;28;20052;-78
2021/12/14 00:37:17;;;;;;;20.88;10.77;;;8.00;99.90;;;;;;5094055;28;20071;-78
2021/12/14 00:39:44;;;;;;;16.67;10.07;;;8.00;99.90;;;;;;5094456;28;20081;-75
2021/12/14 00:42:10;;;;;;;17.00;10.02;;;8.00;99.90;;;;;;5094668;28;20048;-79
2021/12/14 00:44:37;;;;;;;16.52;9.90;;;8.00;99.90;;;;;;5064090;28;20052;-78
2021/12/14 00:47:03;;;;;;;19.58;10.95;;;7.90;99.90;;;;;;5064627;28;20377;-78
2021/12/14 00:49:30;;;;;;;17.70;10.05;;;8.00;99.90;;;;;;5103551;28;20044;-78
2021/12/14 00:51:57;;;;;;;18.60;9.90;;;8.00;99.90;;;;;;5109039;28;20154;-77
2021/12/14 00:54:23;;;;;;;16.40;10.15;;;7.90;99.90;;;;;;5107330;28;20051;-79
2021/12/14 00:56:52;;;;;;;18.60;11.15;;;8.00;99.90;;;;;;5076075;28;20047;-80
2021/12/14 00:59:20;;;;;;;29.45;11.48;;;7.90;99.90;;;;;;5093643;28;20483;-79
2021/12/14 01:02:00;;;;;;;15.70;10.10;;;7.90;99.90;;;;;;5093730;28;20427;-77
2021/12/14 01:04:31;;;;;;;18.35;10.45;;;7.90;99.90;;;;;;5093327;28;20209;-79
2021/12/14 01:06:58;;;;;;;18.80;10.23;;;7.90;99.90;;;;;;5093649;28;20479;-78
2021/12/14 01:09:31;;;;;;;19.13;10.75;;;8.50;99.90;;;;;;5093657;28;20518;-78
2021/12/14 01:12:05;;;;;;;18.27;10.25;;;8.70;99.90;;;;;;5093638;28;20144;-77
2021/12/14 01:14:42;;;;;;;17.10;10.60;;;8.00;99.90;;;;;;5075464;28;20036;-79
2021/12/14 01:17:28;;;;;;;20.75;10.75;;;7.90;99.90;;;;;;5093567;28;20042;-78
2021/12/14 01:19:59;;;;;;;18.85;10.50;;;7.90;99.90;;;;;;5074660;28;20044;-78
2021/12/14 01:25:24;;;;;;;18.27;10.40;;;7.90;99.90;;;;;;5093091;28;20052;-78
2021/12/14 01:28:10;;;;;;;18.92;11.18;;;7.90;99.90;;;;;;5093450;28;20040;-78
2021/12/14 01:30:50;;;;;;;16.25;9.93;;;7.90;99.90;;;;;;5092942;28;20499;-78
2021/12/14 01:33:17;;;;;;;20.15;11.23;;;7.90;99.90;;;;;;5093275;28;20040;-78
2021/12/14 01:35:46;;;;;;;18.67;11.23;;;7.90;99.90;;;;;;5094448;28;20044;-79
2021/12/14 01:38:35;;;;;;;19.15;9.95;;;7.90;99.90;;;;;;5097503;28;20161;-79
2021/12/14 01:41:10;;;;;;;19.67;11.57;;;8.00;99.90;;;;;;5096143;28;20095;-77
2021/12/14 01:43:38;;;;;;;21.15;11.30;;;7.90;99.90;;;;;;5079197;28;20036;-79
2021/12/14 01:46:11;;;;;;;19.45;11.50;;;7.90;99.90;;;;;;5097178;28;20044;-79
2021/12/14 01:48:38;;;;;;;17.17;10.40;;;7.90;99.90;;;;;;5079025;28;20051;-77
2021/12/14 01:51:06;;;;;;;17.92;11.20;;;8.30;99.90;;;;;;5096897;28;20044;-78
2021/12/14 01:53:34;;;;;;;18.10;11.50;;;8.40;99.90;;;;;;5097128;28;20040;-78
2021/12/14 01:56:06;;;;;;;18.67;11.52;;;7.90;99.90;;;;;;5097151;28;20169;-78
2021/12/14 01:58:40;;;;;;;22.55;11.73;;;7.90;99.90;;;;;;5096984;28;20040;-77
2021/12/14 02:01:16;;;;;;;22.02;12.23;;;7.90;99.90;;;;;;5096984;28;20488;-79
2021/12/14 02:03:49;;;;;;;19.38;11.93;;;7.90;99.90;;;;;;5097023;28;20055;-77
2021/12/14 02:06:20;;;;;;;21.05;12.20;;;7.90;99.90;;;;;;5096964;28;20037;-79
2021/12/14 02:08:52;;;;;;;20.83;11.90;;;8.20;99.90;;;;;;5096444;28;20131;-79
2021/12/14 02:11:18;;;;;;;;;;;7.90;99.90;;;;;;5097105;28;20044;-77
2021/12/14 02:13:46;;;;;;;19.95;12.48;;;7.90;99.90;;;;;;5096771;28;19927;-79
2021/12/14 02:16:15;;;;;;;21.17;12.68;;;7.90;99.90;;;;;;5096813;28;20495;-78
2021/12/14 02:18:47;;;;;;;22.38;12.82;;;7.90;99.90;;;;;;5096645;28;20131;-79
2021/12/14 02:21:14;;;;;;;19.57;11.77;;;8.40;99.90;;;;;;5096623;28;20488;-78
2021/12/14 02:23:45;;;;;;;21.77;12.82;;;8.00;99.90;;;;;;5095937;28;20087;-77
2021/12/14 02:26:18;;;;;;;20.67;12.55;;;7.90;99.90;;;;;;5096414;28;20126;-79
2021/12/14 02:28:45;;;;;;;21.25;12.50;;;7.90;99.90;;;;;;5096709;28;20036;-79
2021/12/14 02:31:13;;;;;;;22.33;13.43;;;7.90;99.90;;;;;;5096604;28;20097;-78
2021/12/14 02:33:41;;;;;;;19.98;13.43;;;7.90;99.90;;;;;;5096351;28;20040;-79
2021/12/14 02:36:17;;;;;;;20.48;12.35;;;7.90;99.90;;;;;;5078516;28;20040;-77
2021/12/14 02:38:48;;;;;;;22.83;12.68;;;7.90;99.90;;;;;;5095639;28;20127;-78
2021/12/14 02:41:14;;;;;;;22.17;13.20;;;7.90;99.90;;;;;;5096040;28;20036;-78
2021/12/14 02:43:53;;;;;;;23.63;13.82;;;7.90;99.90;;;;;;5078224;28;20392;-78
2021/12/14 02:46:23;;;;;;;22.52;13.35;;;7.90;99.90;;;;;;5095585;28;20054;-79
2021/12/14 02:48:55;;;;;;;20.98;13.02;;;7.90;99.90;;;;;;5096209;28;20131;-79
2021/12/14 02:51:31;;;;;;;23.92;14.63;;;7.90;99.90;;;;;;5077799;28;20048;-77
2021/12/14 02:54:22;;;;;;;22.58;12.98;;;7.90;99.90;;;;;;5096139;28;20039;-78
2021/12/14 02:56:52;;;;;;;22.88;14.30;;;7.90;99.90;;;;;;5094917;28;20052;-78
2021/12/14 02:59:22;;;;;;;24.40;14.32;;;7.90;99.90;;;;;;5095891;28;20410;-79
2021/12/14 03:01:51;;;;;;;24.58;13.98;;;7.90;99.90;;;;;;5096016;28;20395;-77
2021/12/14 03:04:18;;;;;;;24.58;14.55;;;7.90;99.90;;;;;;5094510;28;20044;-79
2021/12/14 03:06:52;;;;;;;22.40;13.25;;;7.90;99.90;;;;;;5095995;28;20397;-76
2021/12/14 03:12:03;;;;;;;22.15;13.15;;;7.90;99.90;;;;;;5095254;28;20462;-78
2021/12/14 03:14:28;;;;;;;21.65;12.57;;;7.90;99.90;;;;;;5095500;28;20048;-78
2021/12/14 03:16:54;;;;;;;24.50;14.55;;;7.90;99.90;;;;;;5095700;28;20043;-78
2021/12/14 03:19:20;;;;;;;24.98;13.70;;;7.90;99.90;;;;;;5095848;28;20073;-79
2021/12/14 03:21:46;;;;;;;25.33;14.35;;;8.10;99.90;;;;;;5095319;28;20476;-77
2021/12/14 03:24:15;;;;;;;23.75;14.23;;;8.00;99.90;;;;;;5077565;28;20503;-78
2021/12/14 03:26:45;;;;;;;23.23;14.60;;;8.00;99.90;;;;;;5076969;28;20044;-77
2021/12/14 03:29:32;;;;;;;22.52;13.20;;;7.90;99.90;;;;;;5095278;28;20051;-77
2021/12/14 03:31:58;;;;;;;24.10;14.27;;;7.90;99.90;;;;;;5095483;28;20169;-77
2021/12/14 03:34:34;;;;;;;24.13;14.20;;;7.90;99.90;;;;;;5095427;28;20047;-79
2021/12/14 03:37:10;;;;;;;25.02;14.70;;;7.90;99.90;;;;;;5076957;28;20054;-78
2021/12/14 03:39:47;;;;;;;21.92;14.07;;;7.80;99.90;;;;;;5095040;28;20103;-79
2021/12/14 03:42:18;;;;;;;26.40;14.40;;;7.90;99.90;;;;;;5094757;28;20036;-78
2021/12/14 03:44:48;;;;;;;25.27;14.70;;;7.80;99.90;;;;;;5094788;28;20075;-78
2021/12/14 03:47:27;;;;;;;23.27;13.90;;;7.70;99.90;;;;;;5076780;28;20051;-77
2021/12/14 03:49:57;;;;;;;28.05;16.20;;;7.60;99.90;;;;;;5076885;28;20399;-79
2021/12/14 03:52:31;;;;;;;25.08;14.48;;;7.60;99.90;;;;;;5094724;28;20109;-79
2021/12/14 03:54:59;;;;;;;24.75;13.90;;;7.50;99.90;;;;;;5076357;28;20537;-79
2021/12/14 03:57:25;;;;;;;24.17;14.50;;;7.50;99.90;;;;;;5094378;28;20117;-79
2021/12/14 03:59:51;;;;;;;25.67;15.13;;;7.50;99.90;;;;;;5093873;28;20483;-79
2021/12/14 04:02:18;;;;;;;25.70;15.40;;;7.50;99.90;;;;;;5094901;28;20399;-78
2021/12/14 04:04:51;;;;;;;26.15;15.73;;;7.30;99.90;;;;;;5094438;28;20040;-79
2021/12/14 04:07:18;;;;;;;24.23;13.95;;;7.50;99.90;;;;;;5094736;28;20040;-76
2021/12/14 04:09:44;;;;;;;24.20;15.05;;;7.90;99.90;;;;;;5094652;28;20111;-79
2021/12/14 04:12:16;;;;;;;27.73;14.82;;;8.20;99.90;;;;;;5094570;28;20560;-79
2021/12/14 04:14:45;;;;;;;27.23;15.38;;;7.50;99.90;;;;;;5075885;28;20040;-77
2021/12/14 04:17:12;;;;;;;27.75;16.02;;;7.50;99.90;;;;;;5094227;28;20377;-79
2021/12/14 04:19:39;;;;;;;28.63;15.43;;;7.60;99.90;;;;;;5094351;28;20071;-78
2021/12/14 04:22:11;;;;;;;27.38;15.38;;;7.60;99.90;;;;;;5094334;28;20143;-79
2021/12/14 04:24:39;;;;;;;32.20;16.92;;;7.60;99.90;;;;;;5076076;28;20048;-77
2021/12/14 04:27:09;;;;;;;29.25;15.73;;;7.50;99.90;;;;;;5094663;28;20047;-79
2021/12/14 04:29:36;;;;;;;26.40;15.20;;;7.60;99.90;;;;;;5093791;28;20511;-79
2021/12/14 04:32:03;;;;;;;28.40;15.73;;;7.80;99.90;;;;;;5093773;28;20059;-79
2021/12/14 04:34:33;;;;;;;26.45;16.50;;;7.60;99.90;;;;;;5094006;28;20047;-79
2021/12/14 04:37:01;;;;;;;28.42;16.77;;;7.60;99.90;;;;;;5093944;28;20051;-78
2021/12/14 04:53:21;;;;;;;30.90;17.73;;;7.90;99.90;;;;;;5093655;28;20052;-77
2021/12/14 04:55:51;;;;;;;30.65;17.20;;;7.60;99.90;;;;;;5075648;28;20052;-76
2021/12/14 04:58:27;;;;;;;30.92;17.35;;;7.60;99.90;;;;;;5093898;28;20462;-79
2021/12/14 05:00:53;;;;;;;32.47;17.90;;;7.60;99.90;;;;;;5093686;28;20040;-78
2021/12/14 05:03:51;;;;;;;29.85;16.40;;;7.60;99.90;;;;;;5093207;28;20448;-77
2021/12/14 05:06:18;;;;;;;29.55;17.25;;;7.60;99.90;;;;;;5092798;28;20055;-79
2021/12/14 05:11:22;;;;;;;30.88;17.60;;;7.60;99.90;;;;;;5075834;28;20462;-78
2021/12/14 05:13:59;;;;;;;32.20;18.60;;;7.60;99.90;;;;;;5075577;28;20407;-79
2021/12/14 05:16:28;;;;;;;33.78;19.67;;;7.60;99.90;;;;;;5093339;28;20048;-78
2021/12/14 05:18:58;;;;;;;30.70;18.75;;;7.60;99.90;;;;;;5093076;28;20050;-79
2021/12/14 05:21:28;;;;;;;31.52;18.88;;;8.10;99.90;;;;;;5093587;28;20040;-79
2021/12/14 05:23:54;;;;;;;31.27;17.40;;;8.00;99.90;;;;;;5093086;28;20145;-79
2021/12/14 05:26:21;;;;;;;31.00;18.25;;;7.70;99.90;;;;;;5093346;28;20040;-79
2021/12/14 05:28:47;;;;;;;34.95;18.23;;;7.70;99.90;;;;;;5075052;28;20044;-78
2021/12/14 05:31:14;;;;;;;33.38;18.77;;;7.70;99.90;;;;;;5058757;28;20055;-79
2021/12/14 05:33:41;;;;;;;30.13;18.10;;;7.70;99.90;;;;;;5093022;28;20043;-79
2021/12/14 05:36:14;;;;;;;33.15;19.25;;;7.90;99.90;;;;;;5093097;28;20048;-78
2021/12/14 05:38:55;;;;;;;33.30;18.67;;;7.70;99.90;;;;;;5093196;28;20044;-79
2021/12/14 05:44:13;;;;;;;30.45;18.13;;;7.70;99.90;;;;;;5093039;28;20086;-78
2021/12/14 05:46:40;;;;;;;29.67;17.50;;;7.70;99.90;;;;;;5075256;28;20051;-79
2021/12/14 05:49:11;;;;;;;31.17;17.77;;;7.70;99.90;;;;;;5091750;28;20706;-78
2021/12/14 05:51:38;;;;;;;33.33;19.17;;;7.70;99.90;;;;;;5092907;28;20082;-76
2021/12/14 05:54:05;;;;;;;35.72;19.50;;;7.90;99.90;;;;;;5092950;28;20040;-78
2021/12/14 05:56:33;;;;;;;33.55;19.67;;;7.70;99.90;;;;;;5074909;28;20052;-79
2021/12/14 05:59:10;;;;;;;29.77;18.48;;;7.70;99.90;;;;;;5093281;28;20043;-78
2021/12/14 06:01:36;;;;;;;35.22;20.50;;;7.80;99.90;;;;;;5075536;28;20387;-79
2021/12/14 06:04:07;;;;;;;36.47;19.92;;;8.20;99.90;;;;;;5058316;28;20044;-77
2021/12/14 06:06:38;;;;;;;35.50;21.27;;;7.70;99.90;;;;;;5092289;28;20427;-79
2021/12/14 06:09:11;;;;;;;36.30;21.25;;;7.70;99.90;;;;;;5074393;28;20052;-79
2021/12/14 06:11:38;;;;;;;37.83;21.17;;;7.70;99.90;;;;;;5093051;28;20079;-78
2021/12/14 06:14:05;;;;;;;37.38;21.08;;;7.70;99.90;;;;;;5092974;28;20036;-78
2021/12/14 06:16:34;;;;;;;40.70;22.10;;;7.70;99.90;;;;;;5092881;28;20044;-76
2021/12/14 06:19:18;;;;;;;35.33;20.02;;;7.60;99.90;;;;;;5074784;28;20050;-77
2021/12/14 06:21:46;;;;;;;35.97;20.45;;;7.90;99.90;;;;;;5094131;28;20105;-77
2021/12/14 06:24:12;;;;;;;36.90;21.08;;;7.60;99.90;;;;;;5096457;28;20048;-78
2021/12/14 06:26:43;;;;;;;34.08;20.13;;;7.60;99.90;;;;;;5078106;28;20048;-78
2021/12/14 06:29:15;;;;;;;37.40;20.38;;;7.60;99.90;;;;;;5078305;28;20119;-78
2021/12/14 06:31:41;;;;;;;37.40;21.25;;;7.60;99.90;;;;;;5061509;28;20032;-76
2021/12/14 06:34:20;;;;;;;38.47;19.70;;;7.60;99.90;;;;;;5078011;28;20080;-78
2021/12/14 06:36:48;;;;;;;38.60;20.83;;;7.90;99.90;;;;;;5095902;28;20044;-76
2021/12/14 06:39:15;;;;;;;36.75;20.23;;;8.10;99.90;;;;;;5096466;28;20414;-77
2021/12/14 06:41:40;;;;;;;37.72;20.63;;;8.30;99.90;;;;;;5096349;28;20067;-76
2021/12/14 06:44:09;;;;;;;37.65;20.55;;;7.70;99.90;;;;;;5077660;28;20495;-78
2021/12/14 06:46:38;;;;;;;38.17;20.98;;;8.00;99.90;;;;;;5096040;28;20044;-77
2021/12/14 06:49:06;;;;;;;38.75;20.83;;;7.70;99.90;;;;;;5078114;28;20036;-76
2021/12/14 06:51:46;;;;;;;39.22;21.17;;;8.00;99.90;;;;;;5096432;28;20058;-78
2021/12/14 06:54:20;;;;;;;33.60;19.58;;;7.70;99.90;;;;;;5095549;28;20040;-76
2021/12/14 06:57:05;;;;;;;36.42;20.73;;;7.70;99.90;;;;;;5096147;28;21122;-77
2021/12/14 06:59:30;;;;;;;36.13;21.13;;;7.80;99.90;;;;;;5096226;28;20356;-76
2021/12/14 07:02:00;;;;;;;39.63;21.75;;;7.80;99.90;;;;;;5096106;28;20051;-76
2021/12/14 07:04:34;;;;;;;41.08;22.02;;;7.80;99.90;;;;;;5095869;28;20047;-77
2021/12/14 07:07:06;;;;;;;39.75;22.05;;;7.80;99.90;;;;;;5077601;28;20151;-76
2021/12/14 07:09:38;;;;;;;35.80;21.30;;;7.80;99.90;;;;;;5095193;28;20121;-77
2021/12/14 07:12:09;;;;;;;;;;;7.80;99.90;;;;;;5078071;28;20084;-76
2021/12/14 07:15:05;;;;;;;38.55;21.85;;;7.80;99.90;;;;;;5095925;28;19959;-78
2021/12/14 07:17:44;;;;;;;39.78;22.67;;;7.80;99.90;;;;;;5077203;28;20131;-79
2021/12/14 07:20:23;;;;;;;40.65;21.55;;;7.70;99.90;;;;;;5095482;28;20040;-75
2021/12/14 07:22:52;;;;;;;40.33;21.95;;;7.80;99.90;;;;;;5095375;28;20415;-77
2021/12/14 07:25:28;;;;;;;44.40;23.98;;;7.80;99.90;;;;;;5095013;28;20103;-78
2021/12/14 07:27:57;;;;;;;36.72;16.98;;;7.80;99.90;;;;;;5095352;28;20105;-78
2021/12/14 07:30:26;;;;;;;32.75;17.13;;;8.00;99.90;;;;;;5076698;28;20419;-79
2021/12/14 07:32:54;;;;;;;30.25;14.90;;;7.80;99.90;;;;;;5075676;28;20044;-77
2021/12/14 07:35:27;;;;;;;33.40;16.83;;;7.90;99.90;;;;;;5095114;28;20438;-78
2021/12/14 07:37:56;;;;;;;34.33;17.10;;;7.80;99.90;;;;;;5095154;28;20126;-78
2021/12/14 07:40:24;;;;;;;34.38;17.30;;;8.10;99.90;;;;;;5094299;28;20471;-78
2021/12/14 07:43:31;;;;;;;34.65;17.40;;;7.80;99.90;;;;;;5095108;28;20044;-78
2021/12/14 07:45:57;;;;;;;33.03;16.52;;;7.80;99.90;;;;;;4993137;28;20047;-78
2021/12/14 07:48:46;;;;;;;32.88;16.55;;;7.80;99.90;;;;;;4993302;28;20062;-78
2021/12/14 07:51:13;;;;;;;37.38;18.52;;;7.80;99.90;;;;;;4976958;28;20109;-78
2021/12/14 07:53:43;;;;;;;35.20;16.88;;;7.80;99.90;;;;;;4977092;28;20061;-78
2021/12/14 07:56:28;;;;;;;36.33;17.70;;;7.80;99.90;;;;;;4992744;28;20555;-77
2021/12/14 07:58:59;;;;;;;34.40;17.52;;;7.80;99.90;;;;;;4993073;28;20056;-78
2021/12/14 08:01:27;;;;;;;34.70;16.88;;;7.80;99.90;;;;;;4992951;28;20439;-75
2021/12/14 08:04:02;;;;;;;36.40;17.33;;;8.60;99.90;;;;;;4992674;28;20321;-77
2021/12/14 08:06:58;;;;;;;38.50;18.25;;;7.90;99.90;;;;;;4992825;28;20490;-78
2021/12/14 08:09:50;;;;;;;38.40;18.38;;;7.80;99.90;;;;;;4992990;28;20084;-78
2021/12/14 08:12:47;;;;;;;39.70;17.20;;;7.80;99.90;;;;;;4992323;28;20066;-79
2021/12/14 08:15:25;;;;;;;39.67;17.73;;;7.80;99.90;;;;;;4992264;28;20137;-72
2021/12/14 08:18:01;;;;;;;39.08;18.85;;;7.80;99.90;;;;;;4970111;28;20368;-72
2021/12/14 08:20:27;;;;;;;40.90;19.23;;;7.80;99.90;;;;;;4972177;28;20057;-76
2021/12/14 08:22:56;;;;;;;41.38;18.67;;;7.80;99.90;;;;;;5028589;28;20052;-75
2021/12/14 08:25:26;;;;;;;37.95;18.55;;;8.30;99.90;;;;;;5055186;28;20052;-76
2021/12/14 08:28:01;;;;;;;39.55;18.65;;;7.80;99.90;;;;;;5054913;28;20037;-76
2021/12/14 08:30:30;;;;;;;39.70;20.25;;;7.80;99.90;;;;;;5038658;28;20040;-76
2021/12/14 08:32:56;;;;;;;39.47;18.73;;;7.80;99.90;;;;;;5054193;28;20060;-77
2021/12/14 08:35:22;;;;;;;38.42;18.13;;;8.10;99.90;;;;;;5038435;28;20131;-76
2021/12/14 08:37:52;;;;;;;37.20;18.35;;;7.90;99.90;;;;;;5055135;28;20123;-74
2021/12/14 08:40:23;;;;;;;37.17;18.95;;;8.10;99.90;;;;;;5072731;28;20036;-75
2021/12/14 08:43:09;;;;;;;38.33;18.15;;;7.90;99.90;;;;;;5072764;28;20059;-75
2021/12/14 08:45:39;;;;;;;42.50;20.30;;;7.90;99.90;;;;;;5054386;28;20033;-76
2021/12/14 08:48:10;;;;;;;41.70;19.90;;;7.90;99.90;;;;;;5072935;28;20050;-75
2021/12/14 08:50:53;;;;;;;39.42;18.23;;;8.00;99.90;;;;;;5072789;28;20048;-76
2021/12/14 08:53:19;;;;;;;40.50;17.95;;;7.90;99.90;;;;;;5072301;28;20101;-77
2021/12/14 08:55:49;;;;;;;44.38;20.95;;;8.00;99.90;;;;;;5072836;28;20044;-77
2021/12/14 08:58:15;;;;;;;44.03;20.55;;;8.30;99.90;;;;;;5054068;28;20055;-76
2021/12/14 09:00:48;;;;;;;40.30;18.67;;;8.00;99.90;;;;;;5072079;28;20032;-76
2021/12/14 09:03:24;;;;;;;39.45;19.15;;;8.00;99.90;;;;;;5072112;28;20040;-76
2021/12/14 09:05:50;;;;;;;44.00;19.15;;;8.20;99.90;;;;;;5054524;28;20070;-77
2021/12/14 09:08:20;;;;;;;46.72;20.33;;;8.40;99.90;;;;;;5072247;28;20143;-77
2021/12/14 09:10:48;;;;;;;42.80;20.48;;;8.60;99.90;;;;;;5054723;28;20056;-76
2021/12/14 09:13:14;;;;;;;41.38;20.42;;;8.10;99.90;;;;;;5071769;28;20040;-75
2021/12/14 09:15:43;;;;;;;40.40;18.80;;;8.50;99.90;;;;;;5053913;28;20053;-76
2021/12/14 09:18:10;;;;;;;38.80;18.65;;;8.10;99.90;;;;;;5072324;28;20094;-76
2021/12/14 09:20:57;;;;;;;41.85;19.95;;;8.20;99.90;;;;;;5072455;28;20377;-76
2021/12/14 09:23:26;;;;;;;42.95;19.33;;;8.10;99.90;;;;;;5071499;28;20067;-77
2021/12/14 09:25:53;;;;;;;36.75;19.42;;;8.20;99.90;;;;;;5072221;28;20445;-76
2021/12/14 09:28:19;;;;;;;41.13;19.65;;;8.20;99.90;;;;;;5071910;28;20037;-76
2021/12/14 09:30:50;;;;;;;41.78;20.60;;;8.20;99.90;;;;;;5071981;28;20117;-76
2021/12/14 09:33:18;;;;;;;37.50;19.38;;;8.20;99.90;;;;;;5071469;28;20594;-71
2021/12/14 09:35:45;;;;;;;43.53;20.23;;;8.20;99.90;;;;;;5071675;28;20039;-73
2021/12/14 09:38:17;;;;;;;40.35;18.58;;;8.30;99.90;;;;;;5071491;28;20051;-75
2021/12/14 09:40:53;;;;;;;45.05;22.67;;;8.20;99.90;;;;;;5051948;28;20033;-74
2021/12/14 09:43:20;;;;;;;39.60;19.38;;;8.20;99.90;;;;;;5051873;28;20041;-73
2021/12/14 09:45:52;;;;;;;40.50;18.23;;;8.20;99.90;;;;;;5034151;28;20056;-74
2021/12/14 09:48:40;;;;;;;43.72;21.17;;;8.30;99.90;;;;;;5061636;28;20049;-75
2021/12/14 09:51:11;;;;;;;48.35;21.27;;;8.30;99.90;;;;;;5068581;28;20164;-73
2021/12/14 09:53:42;;;;;;;46.65;22.10;;;8.30;99.90;;;;;;5062972;28;20036;-73
2021/12/14 09:56:11;;;;;;;43.38;19.95;;;8.40;99.90;;;;;;5071076;28;20461;-74
2021/12/14 09:58:43;;;;;;;42.28;19.95;;;8.40;99.90;;;;;;5026832;28;20049;-75
2021/12/14 10:01:14;;;;;;;43.17;20.83;;;8.40;99.90;;;;;;5043444;28;20526;-72
2021/12/14 10:03:42;;;;;;;40.85;18.58;;;8.40;99.90;;;;;;5062189;28;20051;-77
2021/12/14 10:06:12;;;;;;;41.13;21.52;;;8.40;99.90;;;;;;5055449;28;20079;-72
2021/12/14 10:08:47;;;;;;;45.95;23.05;;;8.90;99.90;;;;;;5041561;28;20041;-72
2021/12/14 10:11:25;;;;;;;42.45;20.60;;;8.50;99.90;;;;;;5053545;28;20060;-76
2021/12/14 10:13:54;;;;;;;42.92;18.98;;;8.50;99.90;;;;;;5052735;28;20518;-74
2021/12/14 10:16:20;;;;;;;47.58;20.88;;;8.50;99.90;;;;;;5049921;28;20075;-75
2021/12/14 10:18:53;;;;;;;46.90;21.10;;;8.50;99.90;;;;;;5054528;28;20064;-75
2021/12/14 10:21:30;;;;;;;41.20;20.48;;;8.50;99.90;;;;;;5071791;28;20040;-75
2021/12/14 10:23:58;;;;;;;48.45;21.63;;;8.50;99.90;;;;;;5069551;28;20056;-74
2021/12/14 10:26:24;;;;;;;45.05;21.08;;;8.60;99.90;;;;;;5062948;28;20052;-76
2021/12/14 10:28:56;;;;;;;39.58;19.63;;;8.50;99.90;;;;;;5066321;28;20052;-72
2021/12/14 10:31:31;;;;;;;38.45;18.35;;;8.50;99.90;;;;;;5071922;28;20048;-73
2021/12/14 10:34:00;;;;;;;42.75;19.45;;;8.50;99.90;;;;;;5070874;28;20044;-74
2021/12/14 10:36:38;;;;;;;40.45;20.55;;;8.50;99.90;;;;;;5068290;28;20102;-75
2021/12/14 10:39:23;;;;;;;44.97;20.33;;;8.50;99.90;;;;;;5062923;28;20060;-69
2021/12/14 10:44:44;;;;;;;40.25;20.30;;;9.00;99.90;;;;;;5058539;28;20052;-76
2021/12/14 10:47:12;;;;;;;42.08;19.10;;;8.50;99.90;;;;;;5060022;28;20157;-72
2021/12/14 10:49:38;;;;;;;43.42;21.20;;;8.50;99.90;;;;;;5053488;28;20044;-76
2021/12/14 10:52:14;;;;;;;44.35;19.80;;;8.80;99.90;;;;;;5067391;28;20037;-74
2021/12/14 10:54:48;;;;;;;41.95;21.77;;;8.60;99.90;;;;;;5075559;28;20160;-74
2021/12/14 10:57:19;;;;;;;38.78;18.50;;;8.50;99.90;;;;;;5044519;28;20045;-75
2021/12/14 10:59:48;;;;;;;42.72;17.33;;;8.60;99.90;;;;;;5070999;28;20052;-75
2021/12/14 11:02:14;;;;;;;34.47;15.20;;;8.50;99.90;;;;;;5046214;28;20060;-75
2021/12/14 11:04:52;;;;;;;36.40;16.75;;;8.50;99.90;;;;;;5066417;28;20040;-75
2021/12/14 11:07:38;;;;;;;42.05;19.08;;;8.90;99.90;;;;;;5070290;28;20052;-75
2021/12/14 11:10:23;;;;;;;37.00;17.98;;;8.50;99.90;;;;;;5066911;28;20128;-75
2021/12/14 11:12:57;;;;;;;42.47;19.35;;;8.60;99.90;;;;;;5059798;28;20041;-73
2021/12/14 11:15:47;;;;;;;38.75;18.15;;;9.00;99.90;;;;;;5053147;28;20483;-74
2021/12/14 11:18:21;;;;;;;40.25;18.63;;;8.60;99.90;;;;;;5060975;28;20053;-74
2021/12/14 11:21:07;;;;;;;40.50;19.70;;;8.60;99.90;;;;;;5053251;28;20373;-70
2021/12/14 11:23:34;;;;;;;40.13;18.63;;;8.60;99.90;;;;;;5057133;28;20435;-72
2021/12/14 11:26:19;;;;;;;42.53;18.90;;;8.60;99.90;;;;;;5057507;28;20088;-74
2021/12/14 11:28:53;;;;;;;38.13;18.17;;;9.20;99.90;;;;;;5052428;28;20051;-71
2021/12/14 11:31:36;;;;;;;44.50;20.13;;;8.70;99.90;;;;;;5062080;28;20036;-71
2021/12/14 11:34:05;;;;;;;39.70;17.10;;;8.70;99.90;;;;;;5041224;28;20060;-69
2021/12/14 11:36:42;;;;;;;43.10;18.73;;;8.70;99.90;;;;;;5019003;28;20041;-74
2021/12/14 11:39:25;;;;;;;36.03;17.98;;;8.70;99.90;;;;;;5052072;28;20063;-74
2021/12/14 11:42:00;;;;;;;36.78;17.00;;;8.80;99.90;;;;;;5030805;28;20076;-72
2021/12/14 11:44:30;;;;;;;37.95;18.63;;;8.70;99.90;;;;;;5053001;28;20098;-71
2021/12/14 11:47:02;;;;;;;37.45;18.42;;;8.70;99.90;;;;;;5070200;28;20051;-72
2021/12/14 11:49:40;;;;;;;39.05;18.60;;;8.90;99.90;;;;;;5070827;28;20051;-73
2021/12/14 11:52:06;;;;;;;38.25;16.85;;;8.70;99.90;;;;;;5065384;28;20064;-71
2021/12/14 11:54:41;;;;;;;41.95;18.35;;;8.70;99.90;;;;;;5070675;28;20510;-74
2021/12/14 11:57:07;;;;;;;35.88;18.08;;;8.60;99.90;;;;;;5041205;28;20065;-80
2021/12/14 11:59:33;;;;;;;36.78;16.02;;;8.60;99.90;;;;;;5063046;28;20127;-72
2021/12/14 12:02:03;;;;;;;30.95;14.80;;;8.60;99.90;;;;;;5065983;28;20166;-69
2021/12/14 12:04:43;;;;;;;31.10;13.90;;;8.60;99.90;;;;;;5069173;28;20103;-73
2021/12/14 12:09:45;;;;;;;31.10;14.80;;;8.50;99.90;;;;;;5059170;28;20052;-69
2021/12/14 12:12:17;;;;;;;32.47;14.32;;;8.90;99.90;;;;;;5045310;28;20091;-72
2021/12/14 12:14:52;;;;;;;31.75;14.57;;;8.60;99.90;;;;;;5053011;28;20041;-73
2021/12/14 12:17:22;;;;;;;32.13;13.57;;;8.60;99.90;;;;;;5037004;28;20068;-73
2021/12/14 12:20:02;;;;;;;31.40;14.18;;;8.60;99.90;;;;;;5051718;28;20127;-71
2021/12/14 12:22:49;;;;;;;29.23;13.73;;;8.60;99.90;;;;;;5038980;28;20102;-72
2021/12/14 12:25:45;;;;;;;28.95;12.98;;;8.60;99.90;;;;;;5069592;28;20408;-74
2021/12/14 12:28:17;;;;;;;28.83;13.43;;;8.60;99.90;;;;;;4957912;28;20050;-73
2021/12/14 12:30:48;;;;;;;30.80;13.98;;;8.60;99.90;;;;;;4994427;28;20065;-74
2021/12/14 12:33:17;;;;;;;28.45;13.55;;;8.60;99.90;;;;;;5000358;28;20518;-71
2021/12/14 12:35:51;;;;;;;28.73;12.90;;;8.60;99.90;;;;;;4992597;28;20125;-74
2021/12/14 12:44:34;;;;;;;27.98;12.48;;;8.60;99.90;;;;;;5054870;23;20068;-72
2021/12/14 12:47:14;;;;;;;33.03;12.98;;;8.90;99.90;;;;;;5051168;28;20090;-72
2021/12/14 12:49:46;;;;;;;27.88;12.40;;;8.60;99.90;;;;;;5050688;28;20063;-73
2021/12/14 12:52:13;;;;;;;27.55;13.20;;;8.60;99.90;;;;;;5049261;28;20408;-72
2021/12/14 12:54:45;;;;;;;25.42;11.52;;;8.60;99.90;;;;;;5050331;28;20049;-73
2021/12/14 12:57:34;;;;;;;25.67;11.77;;;8.60;99.90;;;;;;5049069;28;20057;-74
2021/12/14 13:00:25;;;;;;;28.83;12.50;;;8.60;99.90;;;;;;5049547;28;20103;-74
2021/12/14 13:02:57;;;;;;;28.17;12.75;;;8.70;99.90;;;;;;5047990;28;20079;-73
2021/12/14 13:05:43;;;;;;;26.50;12.15;;;8.70;99.90;;;;;;5049074;28;20053;-74
2021/12/14 13:08:50;;;;;;;30.25;13.40;;;9.70;99.90;;;;;;5052613;28;20077;-72
2021/12/14 13:11:20;;;;;;;30.20;12.68;;;8.60;99.90;;;;;;4967004;28;20050;-74
2021/12/14 13:13:50;;;;;;;28.40;12.10;;;8.70;99.90;;;;;;4948191;28;20055;-72
2021/12/14 13:16:22;;;;;;;28.50;12.52;;;8.60;99.90;;;;;;4951917;28;20054;-73
2021/12/14 13:18:51;;;;;;;31.52;12.70;;;8.60;99.90;;;;;;4977248;28;20053;-73
2021/12/14 13:21:25;;;;;;;24.48;11.65;;;8.60;99.90;;;;;;4981091;28;20063;-79
2021/12/14 13:24:12;;;;;;;27.58;11.38;;;8.60;99.90;;;;;;4968633;28;20057;-73
2021/12/14 13:26:47;;;;;;;35.08;17.98;;;8.60;99.90;;;;;;4953652;28;20113;-78
2021/12/14 13:29:12;;;;;;;36.88;14.88;;;8.70;99.90;;;;;;4952699;28;20043;-72
2021/12/14 13:31:52;;;;;;;31.88;13.20;;;8.70;99.90;;;;;;4967740;28;20616;-73
2021/12/14 13:34:27;;;;;;;29.33;13.23;;;8.70;99.90;;;;;;4969000;28;20590;-77
2021/12/14 13:36:55;;;;;;;29.02;13.20;;;8.70;99.90;;;;;;4969253;28;20494;-74
2021/12/14 13:39:22;;;;;;;34.67;14.10;;;9.10;99.90;;;;;;4952604;28;20109;-75
2021/12/14 13:41:59;;;;;;;28.35;10.90;;;8.70;99.90;;;;;;4951968;28;20164;-75
2021/12/14 13:44:26;;;;;;;29.10;11.77;;;8.70;99.90;;;;;;4968811;28;20053;-74